createdAt,value
2023-05-23T00:01:14.781Z,12.00
2023-05-23T00:03:41.771Z,6.77
2023-05-23T00:06:09.038Z,14.57
2023-05-23T00:08:35.914Z,8.07
2023-05-23T00:11:02.825Z,9.90
2023-05-23T00:13:34.867Z,9.50
2023-05-23T00:16:02.685Z,11.17
2023-05-23T00:18:30.724Z,14.70
2023-05-23T00:20:59.102Z,9.50
2023-05-23T00:23:25.966Z,10.67
2023-05-23T00:25:55.445Z,12.33
2023-05-23T00:28:22.477Z,9.73
2023-05-23T00:30:51.563Z,9.10
2023-05-23T00:33:22.806Z,13.10
2023-05-23T00:35:49.647Z,12.00
2023-05-23T00:38:19.506Z,9.23
2023-05-23T00:40:46.613Z,11.77
2023-05-23T00:43:13.456Z,12.37
2023-05-23T00:45:40.723Z,11.43
2023-05-23T00:48:11.992Z,10.83
2023-05-23T00:50:38.798Z,9.43
2023-05-23T00:53:05.621Z,14.10
2023-05-23T00:55:32.643Z,10.30
2023-05-23T00:57:59.448Z,11.80
2023-05-23T01:00:29.103Z,9.23
2023-05-23T01:02:56.623Z,10.07
2023-05-23T01:05:25.029Z,13.13
2023-05-23T01:07:52.196Z,11.20
2023-05-23T01:10:24.404Z,10.07
2023-05-23T01:13:18.292Z,12.80
2023-05-23T01:16:13.715Z,12.23
2023-05-23T01:18:54.708Z,10.43
2023-05-23T01:21:24.254Z,15.63
2023-05-23T01:24:06.272Z,10.60
2023-05-23T01:27:03.794Z,12.23
2023-05-23T01:29:40.127Z,11.30
2023-05-23T01:32:11.653Z,9.30
2023-05-23T01:34:39.069Z,10.33
2023-05-23T01:37:10.559Z,10.80
2023-05-23T01:39:38.048Z,10.97
2023-05-23T01:42:05.020Z,10.00
2023-05-23T01:44:32.652Z,9.97
2023-05-23T01:47:01.584Z,11.57
2023-05-23T01:49:31.144Z,9.70
2023-05-23T01:51:59.542Z,9.43
2023-05-23T01:54:26.329Z,10.17
2023-05-23T01:56:53.167Z,11.77
2023-05-23T01:59:19.928Z,10.73
2023-05-23T02:01:46.767Z,10.03
2023-05-23T02:04:16.280Z,11.67
2023-05-23T02:06:43.201Z,10.07
2023-05-23T02:09:10.193Z,11.33
2023-05-23T02:11:37.057Z,11.80
2023-05-23T02:14:04.316Z,9.53
2023-05-23T02:16:31.179Z,11.23
2023-05-23T02:18:58.634Z,15.37
2023-05-23T02:21:27.809Z,10.97
2023-05-23T02:23:54.637Z,11.20
2023-05-23T02:26:21.705Z,10.37
2023-05-23T02:28:48.770Z,11.20
2023-05-23T02:31:17.321Z,10.37
2023-05-23T02:33:46.745Z,13.83
2023-05-23T02:36:13.563Z,13.67
2023-05-23T02:38:42.530Z,10.87
2023-05-23T02:41:11.709Z,10.47
2023-05-23T02:43:39.323Z,12.57
2023-05-23T02:46:06.112Z,10.43
2023-05-23T02:48:35.361Z,10.43
2023-05-23T02:51:07.384Z,13.13
2023-05-23T02:53:36.590Z,11.63
2023-05-23T02:56:03.414Z,13.07
2023-05-23T02:58:32.446Z,12.47
2023-05-23T03:01:01.885Z,11.13
2023-05-23T03:03:37.228Z,19.47
2023-05-23T03:06:06.422Z,15.07
2023-05-23T03:08:35.612Z,13.13
2023-05-23T03:11:02.484Z,11.93
2023-05-23T03:13:29.320Z,11.23
2023-05-23T03:15:56.136Z,10.20
2023-05-23T03:18:22.984Z,8.03
2023-05-23T03:20:54.412Z,12.23
2023-05-23T03:23:23.429Z,12.87
2023-05-23T03:25:50.383Z,14.73
2023-05-23T03:28:17.218Z,10.00
2023-05-23T03:30:44.098Z,9.60
2023-05-23T03:33:11.353Z,12.13
2023-05-23T03:35:41.424Z,11.37
2023-05-23T03:38:08.585Z,12.23
2023-05-23T03:40:35.496Z,10.93
2023-05-23T03:43:06.251Z,9.40
2023-05-23T03:45:33.279Z,10.57
2023-05-23T03:48:02.971Z,11.57
2023-05-23T03:50:32.101Z,10.27
2023-05-23T03:53:01.143Z,9.03
2023-05-23T03:55:28.037Z,11.67
2023-05-23T03:57:54.905Z,9.37
2023-05-23T04:00:21.756Z,15.40
2023-05-23T04:02:50.265Z,15.13
2023-05-23T04:05:17.240Z,12.17
2023-05-23T04:07:44.623Z,9.87
2023-05-23T04:10:13.866Z,9.43
2023-05-23T04:12:41.809Z,10.40
2023-05-23T04:15:09.229Z,10.43
2023-05-23T04:17:39.076Z,10.20
2023-05-23T04:20:10.118Z,11.17
2023-05-23T04:22:37.214Z,12.13
2023-05-23T04:25:04.368Z,8.37
2023-05-23T04:27:31.172Z,11.47
2023-05-23T04:29:58.369Z,11.10
2023-05-23T04:32:25.488Z,10.07
2023-05-23T04:34:52.569Z,7.90
2023-05-23T04:37:26.219Z,8.33
2023-05-23T04:39:53.384Z,11.97
2023-05-23T04:42:24.865Z,7.57
2023-05-23T04:44:52.831Z,9.83
2023-05-23T04:47:19.858Z,12.30
2023-05-23T04:49:46.738Z,13.57
2023-05-23T04:52:13.518Z,12.33
2023-05-23T04:54:44.775Z,8.93
2023-05-23T04:57:14.214Z,11.63
2023-05-23T04:59:43.422Z,15.63
2023-05-23T05:02:12.542Z,10.23
2023-05-23T05:04:39.379Z,16.23
2023-05-23T05:07:08.855Z,9.87
2023-05-23T05:09:36.510Z,10.00
2023-05-23T05:12:03.353Z,10.37
2023-05-23T05:14:30.938Z,8.63
2023-05-23T05:17:02.778Z,8.93
2023-05-23T05:19:30.022Z,15.63
2023-05-23T05:21:57.915Z,8.43
2023-05-23T05:24:27.884Z,11.97
2023-05-23T05:26:57.323Z,8.77
2023-05-23T05:29:28.930Z,8.17
2023-05-23T05:31:55.908Z,13.03
2023-05-23T05:34:22.961Z,7.30
2023-05-23T05:36:49.792Z,13.47
2023-05-23T05:39:17.006Z,7.67
2023-05-23T05:41:43.823Z,11.03
2023-05-23T05:44:10.691Z,8.07
2023-05-23T05:46:37.641Z,8.50
2023-05-23T05:49:04.508Z,12.63
2023-05-23T05:51:31.660Z,11.23
2023-05-23T05:53:58.615Z,7.87
2023-05-23T05:56:26.241Z,12.73
2023-05-23T05:58:53.117Z,8.93
2023-05-23T06:01:20.148Z,6.50
2023-05-23T06:03:47.189Z,9.97
2023-05-23T06:06:16.403Z,9.30
2023-05-23T06:08:43.445Z,12.67
2023-05-23T06:11:12.655Z,6.53
2023-05-23T06:13:41.942Z,7.53
2023-05-23T06:16:08.814Z,8.97
2023-05-23T06:18:35.666Z,6.57
2023-05-23T06:21:05.117Z,15.33
2023-05-23T06:23:32.016Z,8.20
2023-05-23T06:25:59.718Z,13.07
2023-05-23T06:28:28.897Z,9.77
2023-05-23T06:30:55.760Z,10.97
2023-05-23T06:33:24.770Z,13.20
2023-05-23T06:35:56.291Z,10.70
2023-05-23T06:38:23.122Z,11.70
2023-05-23T06:40:50.009Z,5.30
2023-05-23T06:43:16.888Z,13.18
2023-05-23T06:45:50.445Z,8.40
2023-05-23T06:48:17.335Z,9.25
2023-05-23T06:50:44.245Z,10.70
2023-05-23T06:53:11.212Z,8.13
2023-05-23T06:55:40.266Z,7.47
2023-05-23T06:58:07.106Z,5.90
2023-05-23T07:00:33.991Z,6.72
2023-05-23T07:03:03.458Z,10.65
2023-05-23T07:05:30.527Z,7.30
2023-05-23T07:07:57.345Z,4.10
2023-05-23T07:10:24.168Z,6.35
2023-05-23T07:12:51.224Z,7.57
2023-05-23T07:15:18.151Z,7.53
2023-05-23T07:17:45.019Z,9.63
2023-05-23T07:20:12.009Z,6.88
2023-05-23T07:22:38.809Z,11.85
2023-05-23T07:25:08.628Z,6.13
2023-05-23T07:27:37.601Z,3.97
2023-05-23T07:30:09.566Z,5.90
2023-05-23T07:32:36.852Z,3.95
2023-05-23T07:35:06.660Z,9.45
2023-05-23T07:37:35.660Z,4.45
2023-05-23T07:40:02.550Z,6.25
2023-05-23T07:42:29.369Z,6.15
2023-05-23T07:45:01.697Z,5.68
2023-05-23T07:47:30.994Z,9.50
2023-05-23T07:49:57.865Z,5.43
2023-05-23T07:52:24.694Z,8.38
2023-05-23T07:54:51.542Z,8.00
2023-05-23T07:57:21.005Z,4.07
2023-05-23T07:59:50.275Z,6.40
2023-05-23T08:02:17.375Z,8.50
2023-05-23T08:04:45.378Z,6.95
2023-05-23T08:07:12.925Z,7.22
2023-05-23T08:09:42.936Z,8.77
2023-05-23T08:12:09.896Z,8.07
2023-05-23T08:14:49.992Z,5.32
2023-05-23T08:17:21.128Z,5.68
2023-05-23T08:19:48.052Z,6.95
2023-05-23T08:22:14.851Z,6.80
2023-05-23T08:24:43.883Z,4.28
2023-05-23T08:27:13.110Z,5.05
2023-05-23T08:29:40.095Z,7.55
2023-05-23T08:32:09.244Z,7.15
2023-05-23T08:34:36.074Z,8.50
2023-05-23T08:37:03.196Z,6.07
2023-05-23T08:39:32.211Z,11.48
2023-05-23T08:41:59.061Z,6.00
2023-05-23T08:44:25.936Z,5.13
2023-05-23T08:46:53.496Z,8.70
2023-05-23T08:49:20.321Z,6.07
2023-05-23T08:51:47.177Z,3.88
2023-05-23T08:54:17.203Z,8.88
2023-05-23T08:56:44.032Z,6.38
2023-05-23T08:59:11.293Z,5.05
2023-05-23T09:01:41.498Z,5.63
2023-05-23T09:04:11.315Z,7.50
2023-05-23T09:06:38.189Z,3.65
2023-05-23T09:09:05.187Z,4.85
2023-05-23T09:11:36.107Z,4.47
2023-05-23T09:14:05.197Z,5.75
2023-05-23T09:16:37.549Z,4.75
2023-05-23T09:19:11.261Z,7.10
2023-05-23T09:21:38.188Z,6.53
2023-05-23T09:24:06.021Z,3.60
2023-05-23T09:26:32.947Z,5.68
2023-05-23T09:29:00.536Z,8.80
2023-05-23T09:31:32.858Z,4.05
2023-05-23T09:34:01.962Z,7.60
2023-05-23T09:36:30.450Z,6.15
2023-05-23T09:38:57.291Z,8.20
2023-05-23T09:41:25.199Z,10.02
2023-05-23T09:43:55.196Z,3.88
2023-05-23T09:46:22.384Z,5.70
2023-05-23T09:48:58.157Z,3.90
2023-05-23T09:51:25.077Z,7.35
2023-05-23T09:53:53.065Z,2.50
2023-05-23T09:56:20.033Z,5.25
2023-05-23T09:58:50.893Z,3.83
2023-05-23T10:01:19.908Z,5.47
2023-05-23T10:03:51.025Z,6.10
2023-05-23T10:06:57.790Z,3.70
2023-05-23T10:09:27.562Z,6.70
2023-05-23T10:12:02.637Z,4.93
2023-05-23T10:14:30.172Z,6.47
2023-05-23T10:17:08.936Z,4.68
2023-05-23T10:19:50.600Z,6.57
2023-05-23T10:22:17.432Z,4.63
2023-05-23T10:24:46.158Z,4.28
2023-05-23T10:27:13.001Z,4.28
2023-05-23T10:29:39.801Z,5.20
2023-05-23T10:32:09.166Z,7.00
2023-05-23T10:34:41.949Z,6.40
2023-05-23T10:37:12.377Z,9.02
2023-05-23T10:39:44.380Z,9.00
2023-05-23T10:42:26.412Z,4.90
2023-05-23T10:44:53.226Z,7.20
2023-05-23T10:47:27.889Z,5.07
2023-05-23T10:49:55.339Z,6.20
2023-05-23T10:52:24.030Z,4.93
2023-05-23T10:54:52.469Z,5.22
2023-05-23T10:57:20.733Z,9.48
2023-05-23T10:59:47.650Z,5.82
2023-05-23T11:02:16.286Z,12.18
2023-05-23T11:04:43.315Z,6.35
2023-05-23T11:07:34.438Z,8.20
2023-05-23T11:10:19.461Z,7.75
2023-05-23T11:12:50.871Z,6.82
2023-05-23T11:15:20.531Z,9.32
2023-05-23T11:17:55.160Z,7.80
2023-05-23T11:20:25.877Z,4.55
2023-05-23T11:22:59.075Z,4.80
2023-05-23T11:25:44.139Z,2.97
2023-05-23T11:28:14.261Z,7.68
2023-05-23T11:30:44.296Z,4.10
2023-05-23T11:33:17.090Z,5.00
2023-05-23T11:35:45.807Z,6.43
2023-05-23T11:38:12.830Z,6.72
2023-05-23T11:40:42.983Z,8.50
2023-05-23T11:43:16.864Z,4.43
2023-05-23T11:45:43.955Z,7.72
2023-05-23T11:48:15.029Z,4.45
2023-05-23T11:50:46.071Z,3.13
2023-05-23T11:53:20.828Z,10.20
2023-05-23T11:55:50.864Z,4.93
2023-05-23T11:58:17.685Z,4.90
2023-05-23T12:00:45.667Z,5.43
2023-05-23T12:03:12.918Z,5.93
2023-05-23T12:05:39.830Z,9.65
2023-05-23T12:08:06.793Z,4.60
2023-05-23T12:10:35.979Z,4.70
2023-05-23T12:13:02.842Z,4.03
2023-05-23T12:15:29.899Z,6.70
2023-05-23T12:17:57.088Z,8.98
2023-05-23T12:20:26.626Z,9.77
2023-05-23T12:22:57.003Z,8.98
2023-05-23T12:25:26.031Z,5.18
2023-05-23T12:27:56.370Z,4.28
2023-05-23T12:30:23.286Z,6.90
2023-05-23T12:32:52.919Z,6.78
2023-05-23T12:35:19.869Z,3.63
2023-05-23T12:37:48.932Z,6.70
2023-05-23T12:40:16.321Z,10.52
2023-05-23T12:42:54.913Z,7.93
2023-05-23T12:45:25.066Z,8.98
2023-05-23T12:47:54.184Z,6.00
2023-05-23T12:50:21.559Z,5.15
2023-05-23T12:52:48.501Z,5.10
2023-05-23T12:55:15.472Z,4.05
2023-05-23T12:57:42.300Z,5.03
2023-05-23T13:00:09.897Z,11.57
2023-05-23T13:02:36.778Z,8.27
2023-05-23T13:05:03.700Z,5.25
2023-05-23T13:07:30.550Z,6.78
2023-05-23T13:09:57.616Z,5.93
2023-05-23T13:12:24.570Z,3.67
2023-05-23T13:14:53.739Z,8.60
2023-05-23T13:17:20.942Z,6.30
2023-05-23T13:19:47.735Z,4.88
2023-05-23T13:22:14.619Z,8.60
2023-05-23T13:24:46.196Z,5.00
2023-05-23T13:27:13.141Z,6.20
2023-05-23T13:29:42.177Z,4.28
2023-05-23T13:32:11.269Z,5.18
2023-05-23T13:34:38.087Z,5.25
2023-05-23T13:37:05.722Z,5.25
2023-05-23T13:39:32.573Z,8.43
2023-05-23T13:42:01.864Z,4.18
2023-05-23T13:44:28.657Z,4.28
2023-05-23T13:46:55.746Z,9.00
2023-05-23T13:49:22.806Z,4.07
2023-05-23T13:51:50.230Z,5.40
2023-05-23T13:54:17.138Z,12.38
2023-05-23T13:56:44.306Z,4.82
2023-05-23T13:59:11.139Z,3.88
2023-05-23T14:01:38.005Z,4.65
2023-05-23T14:04:06.851Z,6.75
2023-05-23T14:06:35.153Z,5.68
2023-05-23T14:09:01.960Z,5.53
2023-05-23T14:11:29.307Z,5.50
2023-05-23T14:13:58.166Z,11.18
2023-05-23T14:16:25.297Z,3.65
2023-05-23T14:18:52.185Z,7.10
2023-05-23T14:21:19.027Z,5.55
2023-05-23T14:23:48.465Z,9.20
2023-05-23T14:26:15.286Z,4.85
2023-05-23T14:28:42.458Z,6.68
2023-05-23T14:31:11.778Z,5.57
2023-05-23T14:33:41.168Z,8.70
2023-05-23T14:36:13.538Z,6.50
2023-05-23T14:38:45.478Z,6.68
2023-05-23T14:41:15.420Z,7.97
2023-05-23T14:43:42.191Z,6.53
2023-05-23T14:46:11.418Z,6.15
2023-05-23T14:48:40.736Z,7.28
2023-05-23T14:51:07.646Z,8.63
2023-05-23T14:53:34.661Z,9.88
2023-05-23T14:56:03.896Z,8.75
2023-05-23T14:58:30.754Z,10.25
2023-05-23T15:00:57.554Z,7.15
2023-05-23T15:03:24.417Z,6.75
2023-05-23T15:05:53.765Z,7.28
2023-05-23T15:08:22.768Z,8.52
2023-05-23T15:10:49.628Z,6.18
2023-05-23T15:13:19.063Z,4.20
2023-05-23T15:15:46.499Z,8.40
2023-05-23T15:18:27.950Z,6.03
2023-05-23T15:21:05.074Z,11.27
2023-05-23T15:23:34.709Z,9.05
2023-05-23T15:26:01.693Z,6.95
2023-05-23T15:28:28.522Z,7.75
2023-05-23T15:30:57.157Z,6.68
2023-05-23T15:33:24.099Z,7.63
2023-05-23T15:35:53.949Z,5.53
2023-05-23T15:38:20.866Z,8.80
2023-05-23T15:40:49.083Z,5.15
2023-05-23T15:43:15.990Z,9.80
2023-05-23T15:45:42.902Z,5.55
2023-05-23T15:48:09.824Z,5.20
2023-05-23T15:50:36.775Z,7.43
2023-05-23T15:53:03.645Z,6.80
2023-05-23T15:55:31.080Z,8.60
2023-05-23T15:57:57.977Z,7.13
2023-05-23T16:00:24.870Z,6.03
2023-05-23T16:02:54.232Z,5.05
2023-05-23T16:05:23.603Z,5.70
2023-05-23T16:07:51.446Z,6.22
2023-05-23T16:10:18.405Z,8.13
2023-05-23T16:12:45.303Z,8.32
2023-05-23T16:15:12.136Z,5.57
2023-05-23T16:17:38.979Z,6.78
2023-05-23T16:20:08.555Z,5.10
2023-05-23T16:22:35.471Z,5.97
2023-05-23T16:25:06.145Z,5.43
2023-05-23T16:27:32.941Z,9.43
2023-05-23T16:29:59.811Z,8.80
2023-05-23T16:32:28.401Z,8.23
2023-05-23T16:34:57.418Z,7.40
2023-05-23T16:37:24.243Z,5.80
2023-05-23T16:39:51.079Z,9.45
2023-05-23T16:42:17.969Z,7.00
2023-05-23T16:44:45.549Z,7.63
2023-05-23T16:47:12.404Z,6.13
2023-05-23T16:49:39.213Z,8.25
2023-05-23T16:52:06.175Z,7.20
2023-05-23T16:54:32.977Z,10.95
2023-05-23T16:57:02.032Z,5.75
2023-05-23T16:59:29.930Z,7.55
2023-05-23T17:01:57.098Z,8.30
2023-05-23T17:04:26.406Z,7.97
2023-05-23T17:06:55.472Z,7.68
2023-05-23T17:09:22.429Z,5.15
2023-05-23T17:11:51.873Z,7.15
2023-05-23T17:14:18.757Z,7.43
2023-05-23T17:16:45.597Z,7.50
2023-05-23T17:19:12.455Z,10.45
2023-05-23T17:21:39.361Z,8.02
2023-05-23T17:24:06.304Z,9.63
2023-05-23T17:26:33.196Z,5.55
2023-05-23T17:29:00.117Z,6.70
2023-05-23T17:31:29.677Z,6.82
2023-05-23T17:33:57.546Z,5.03
2023-05-23T17:36:24.364Z,8.55
2023-05-23T17:38:53.758Z,9.77
2023-05-23T17:41:23.157Z,9.23
2023-05-23T17:43:50.331Z,6.55
2023-05-23T17:46:19.655Z,10.80
2023-05-23T17:48:48.224Z,9.38
2023-05-23T17:51:17.579Z,7.28
2023-05-23T17:53:44.464Z,6.85
2023-05-23T17:56:11.435Z,9.63
2023-05-23T17:58:39.705Z,10.68
2023-05-23T18:01:07.952Z,7.15
2023-05-23T18:03:38.281Z,11.45
2023-05-23T18:06:05.212Z,6.18
2023-05-23T18:08:32.052Z,9.15
2023-05-23T18:11:01.112Z,18.45
2023-05-23T18:13:27.926Z,9.45
2023-05-23T18:15:54.733Z,8.80
2023-05-23T18:18:21.727Z,10.05
2023-05-23T18:20:50.954Z,12.25
2023-05-23T18:23:17.915Z,5.47
2023-05-23T18:25:47.308Z,10.40
2023-05-23T18:28:14.160Z,6.30
2023-05-23T18:30:41.528Z,9.95
2023-05-23T18:33:08.567Z,11.50
2023-05-23T18:35:35.436Z,7.22
2023-05-23T18:38:02.292Z,11.02
2023-05-23T18:40:31.346Z,13.57
2023-05-23T18:42:58.212Z,15.20
2023-05-23T18:45:24.993Z,11.50
2023-05-23T18:47:51.918Z,12.50
2023-05-23T18:50:18.763Z,12.57
2023-05-23T18:52:45.588Z,11.70
2023-05-23T18:55:12.825Z,10.02
2023-05-23T18:57:41.880Z,9.23
2023-05-23T19:00:09.260Z,10.10
2023-05-23T19:02:36.277Z,12.63
2023-05-23T19:05:03.434Z,9.05
2023-05-23T19:07:32.665Z,12.50
2023-05-23T19:10:03.884Z,12.18
2023-05-23T19:12:35.454Z,8.80
2023-05-23T19:15:05.619Z,11.65
2023-05-23T19:17:35.315Z,14.43
2023-05-23T19:20:03.395Z,8.82
2023-05-23T19:22:47.030Z,13.40
2023-05-23T19:25:18.302Z,9.00
2023-05-23T19:27:45.100Z,12.18
2023-05-23T19:30:14.576Z,16.42
2023-05-23T19:32:43.920Z,14.82
2023-05-23T19:35:10.805Z,12.77
2023-05-23T19:37:37.642Z,16.58
2023-05-23T19:40:05.330Z,15.85
2023-05-23T19:42:32.192Z,9.95
2023-05-23T19:44:59.027Z,16.58
2023-05-23T19:47:27.404Z,15.48
2023-05-23T19:49:55.572Z,14.52
2023-05-23T19:52:24.660Z,9.20
2023-05-23T19:54:51.728Z,14.05
2023-05-23T19:57:18.575Z,13.80
2023-05-23T19:59:45.484Z,12.57
2023-05-23T20:02:12.277Z,15.85
2023-05-23T20:04:41.750Z,9.55
2023-05-23T20:07:08.697Z,11.80
2023-05-23T20:09:35.498Z,13.00
2023-05-23T20:12:02.963Z,11.20
2023-05-23T20:14:30.920Z,11.35
2023-05-23T20:16:57.860Z,17.98
2023-05-23T20:19:27.242Z,13.90
2023-05-23T20:21:54.199Z,12.57
2023-05-23T20:24:25.482Z,13.20
2023-05-23T20:26:52.278Z,16.60
2023-05-23T20:29:21.627Z,17.95
2023-05-23T20:31:48.539Z,19.23
2023-05-23T20:34:15.521Z,12.25
2023-05-23T20:36:44.753Z,12.52
2023-05-23T20:39:11.784Z,11.10
2023-05-23T20:41:42.021Z,13.43
2023-05-23T20:44:11.887Z,11.95
2023-05-23T20:46:41.424Z,13.45
2023-05-23T20:49:08.404Z,10.50
2023-05-23T20:51:37.252Z,14.18
2023-05-23T20:54:05.382Z,12.20
2023-05-23T20:56:35.054Z,13.27
2023-05-23T20:59:01.916Z,11.43
2023-05-23T21:01:31.072Z,16.02
2023-05-23T21:03:58.122Z,16.38
2023-05-23T21:06:27.207Z,12.38
2023-05-23T21:08:54.007Z,16.23
2023-05-23T21:11:21.123Z,13.73
2023-05-23T21:13:47.934Z,11.50
2023-05-23T21:16:15.065Z,12.05
2023-05-23T21:18:41.953Z,34.50
2023-05-23T21:21:11.096Z,13.93
2023-05-23T21:23:40.270Z,12.98
2023-05-23T21:26:07.137Z,16.50
2023-05-23T21:28:33.948Z,13.50
2023-05-23T21:31:03.331Z,19.33
2023-05-23T21:33:30.370Z,17.85
2023-05-23T21:35:58.735Z,18.00
2023-05-23T21:38:30.338Z,20.17
2023-05-23T21:40:57.143Z,20.65
2023-05-23T21:43:23.994Z,17.73
2023-05-23T21:45:50.887Z,15.80
2023-05-23T21:48:17.678Z,15.40
2023-05-23T21:50:44.612Z,16.02
2023-05-23T21:53:13.648Z,20.23
2023-05-23T21:55:40.496Z,12.68
2023-05-23T21:58:07.316Z,13.05
2023-05-23T22:00:34.141Z,17.13
2023-05-23T22:03:01.086Z,16.83
2023-05-23T22:05:30.532Z,13.23
2023-05-23T22:07:57.398Z,12.15
2023-05-23T22:10:25.567Z,18.80
2023-05-23T22:12:52.377Z,13.48
2023-05-23T22:15:19.172Z,12.48
2023-05-23T22:17:48.307Z,10.85
2023-05-23T22:20:16.654Z,18.95
2023-05-23T22:22:45.509Z,16.73
2023-05-23T22:25:12.388Z,15.77
2023-05-23T22:27:39.257Z,14.32
2023-05-23T22:30:09.182Z,11.18
2023-05-23T22:32:38.542Z,15.18
2023-05-23T22:35:05.882Z,12.60
2023-05-23T22:37:32.702Z,12.98
2023-05-23T22:39:59.557Z,13.57
2023-05-23T22:42:28.633Z,20.52
2023-05-23T22:44:55.417Z,13.02
2023-05-23T22:47:24.561Z,18.98
2023-05-23T22:49:56.503Z,16.52
2023-05-23T22:52:31.224Z,12.02
2023-05-23T22:55:00.346Z,17.00
2023-05-23T22:57:27.164Z,13.05
2023-05-23T22:59:53.960Z,14.90
2023-05-23T23:02:23.135Z,12.40
2023-05-23T23:04:50.017Z,15.10
2023-05-23T23:07:16.883Z,12.13
2023-05-23T23:09:43.731Z,14.40
2023-05-23T23:12:10.585Z,15.25
2023-05-23T23:14:37.383Z,15.93
2023-05-23T23:17:05.021Z,14.77
2023-05-23T23:19:35.283Z,13.77
2023-05-23T23:22:02.207Z,12.43
2023-05-23T23:24:28.994Z,18.05
2023-05-23T23:26:55.832Z,11.05
2023-05-23T23:29:22.835Z,14.52
2023-05-23T23:31:51.861Z,11.80
2023-05-23T23:34:18.772Z,16.88
2023-05-23T23:36:45.786Z,11.20
2023-05-23T23:39:12.541Z,11.07
2023-05-23T23:41:39.327Z,22.00
2023-05-23T23:44:06.181Z,11.25
2023-05-23T23:46:32.981Z,11.50
2023-05-23T23:48:59.819Z,10.20
2023-05-23T23:51:28.811Z,20.17
2023-05-23T23:53:56.518Z,12.07
2023-05-23T23:56:24.725Z,9.37
2023-05-23T23:58:51.685Z,15.17
